Decoded Metar for KFDW (FAIRFIELD COUNTY AIRPORT in SC, USA) (IATA:N/A) | Meteo·Mobile Aviation Weather
aviador You're here:

KFDW Decoded Metar

FAIRFIELD COUNTY AIRPORT in SC, USA
Report Time2019-04-21 00:35:00
UTC Time2019-04-21 00:44:35
Flight Rules vfr VFR
Wind210° at 03 kt
W.Decomp.*RWY 22: 3.0 kt HW 0.2 kt LCW
Visibility9999 m
Phenomena:N/A
Clouds:Scattered 037 Hf
Broken 080 Hf
Expected CloudBase > 800 ft AGL from Temp-Dew spread
Ceiling8,000 ft
Temp09°C (ISA -5)
Dew Point07°C (87% RH)
AAT7.2°C
QNH1011 hPa
Density Alt203 ft
Elevation577 ft
Report Wrong Elevation
Raw Report
METAR KFDW 210035Z AUTO 21003KT 10SM SCT037 BKN080 09/07 A2985 RMK
AO1=

Extra information for KFDW:More info

Metar Taf Metar & Taf Last 4 Metars F.Rules Stats Wind Profile Meteogram Temp Stats Airport Information Weather charts Add Link Nearby VenuesMetar ALERT Operation Metar Decoded Social comments

AIRNAV info for KFDW